Time;durP1;ratioP1;P1;durP2;ratioP2;P2;SDS_P1;SDS_P2;PMS_P1;PMS_P2;Temp;Humidity;BMP_temperature;BMP_pressure;BME280_temperature;BME280_humidity;BME280_pressure;Samples;Min_cycle;Max_cycle;Signal;HPM_P1;HPM_P2
2023/01/01 05:00:18;;;;;;;5.90;1.70;;;15.10;99.90;;;;;;5920095;23;22181;-64
2023/01/01 05:02:45;;;;;;;2.73;2.53;;;15.10;99.90;;;;;;4890173;29;20566;-66
2023/01/01 05:05:11;;;;;;;2.30;2.10;;;15.10;99.90;;;;;;4897581;29;20491;-67
2023/01/01 05:07:38;;;;;;;3.27;2.30;;;15.10;99.90;;;;;;4897544;29;20473;-67
2023/01/01 05:10:06;;;;;;;4.73;3.67;;;15.00;99.90;;;;;;4897903;29;20494;-65
2023/01/01 05:12:32;;;;;;;4.57;2.37;;;15.00;99.90;;;;;;4896296;29;20495;-65
2023/01/01 05:14:59;;;;;;;6.33;3.47;;;15.10;99.90;;;;;;4896127;29;20478;-66
2023/01/01 05:17:27;;;;;;;2.30;1.70;;;15.10;99.90;;;;;;4912775;23;20499;-67
2023/01/01 05:19:54;;;;;;;2.50;2.27;;;15.10;99.90;;;;;;4897133;29;20473;-65
2023/01/01 05:22:20;;;;;;;3.40;2.70;;;15.10;99.90;;;;;;4895606;29;20480;-65
2023/01/01 05:24:47;;;;;;;2.80;2.33;;;15.20;99.90;;;;;;4896757;29;20490;-65
2023/01/01 05:27:14;;;;;;;3.17;2.97;;;15.20;99.90;;;;;;4895592;29;20511;-65
2023/01/01 05:29:40;;;;;;;11.47;2.40;;;15.20;99.90;;;;;;4896876;29;20980;-66
2023/01/01 05:32:07;;;;;;;2.47;2.00;;;15.10;99.90;;;;;;4894210;29;20488;-65
2023/01/01 05:34:35;;;;;;;13.10;3.13;;;15.10;99.90;;;;;;4889592;29;20490;-65
2023/01/01 05:37:02;;;;;;;2.93;2.40;;;15.10;99.90;;;;;;4893041;29;20478;-65
2023/01/01 05:39:28;;;;;;;2.23;2.13;;;15.10;99.90;;;;;;4904533;29;20924;-66
2023/01/01 05:41:55;;;;;;;4.27;2.77;;;15.00;99.90;;;;;;4895696;29;20478;-65
2023/01/01 05:44:22;;;;;;;5.90;3.13;;;15.10;99.90;;;;;;4900373;29;20485;-65
2023/01/01 05:46:48;;;;;;;2.87;1.97;;;15.10;99.90;;;;;;4896009;29;20475;-65
2023/01/01 05:49:15;;;;;;;2.57;2.50;;;15.00;99.90;;;;;;4905242;29;20529;-65
2023/01/01 05:51:43;;;;;;;3.50;3.03;;;14.90;99.90;;;;;;4895512;29;20483;-65
2023/01/01 05:54:10;;;;;;;2.93;2.73;;;15.00;99.90;;;;;;4894829;29;20483;-65
2023/01/01 05:56:37;;;;;;;3.17;2.23;;;14.90;99.90;;;;;;4896095;29;20494;-66
2023/01/01 05:59:04;;;;;;;2.73;2.53;;;15.00;99.90;;;;;;4905318;29;20489;-65
2023/01/01 06:01:31;;;;;;;5.43;3.57;;;14.90;99.90;;;;;;4897492;29;20471;-65
2023/01/01 06:03:59;;;;;;;5.80;3.63;;;15.00;99.90;;;;;;4902930;29;20784;-65
2023/01/01 06:06:28;;;;;;;4.83;3.00;;;14.90;99.90;;;;;;4903048;29;20486;-66
2023/01/01 06:08:58;;;;;;;2.77;2.57;;;14.90;99.90;;;;;;4888107;29;20503;-65
2023/01/01 06:11:25;;;;;;;3.20;3.00;;;14.90;99.90;;;;;;4891137;29;20469;-65
2023/01/01 06:13:52;;;;;;;3.43;2.60;;;14.90;99.90;;;;;;4901756;29;20507;-66
2023/01/01 06:16:19;;;;;;;4.97;2.03;;;14.90;99.90;;;;;;4896151;29;20475;-65
2023/01/01 06:18:46;;;;;;;4.00;2.47;;;14.90;99.90;;;;;;4896056;29;20507;-66
2023/01/01 06:21:15;;;;;;;3.13;2.93;;;15.00;99.90;;;;;;4895146;29;20471;-67
2023/01/01 06:23:42;;;;;;;2.77;2.10;;;15.00;99.90;;;;;;4903250;29;20478;-66
2023/01/01 06:26:12;;;;;;;2.20;2.10;;;15.00;99.90;;;;;;4893222;29;20479;-66
2023/01/01 06:28:39;;;;;;;2.97;1.90;;;15.00;99.90;;;;;;4895937;29;20487;-66
2023/01/01 06:31:08;;;;;;;1.50;1.40;;;15.00;99.90;;;;;;4902936;29;20819;-66
2023/01/01 06:33:35;;;;;;;1.60;1.50;;;15.00;99.90;;;;;;4883913;29;20511;-66
2023/01/01 06:36:03;;;;;;;3.90;3.20;;;15.00;99.90;;;;;;4886580;29;20489;-65
2023/01/01 06:38:31;;;;;;;2.47;2.23;;;15.00;99.90;;;;;;4896505;29;20493;-65
2023/01/01 06:40:59;;;;;;;1.60;1.50;;;15.00;99.90;;;;;;4902639;29;20577;-65
2023/01/01 06:43:29;;;;;;;1.97;1.87;;;15.00;99.90;;;;;;4893439;29;20844;-65
2023/01/01 06:46:04;;;;;;;3.53;1.37;;;15.00;99.90;;;;;;4902071;29;20469;-66
2023/01/01 06:48:32;;;;;;;2.10;1.43;;;15.00;99.90;;;;;;4897598;29;20487;-65
2023/01/01 06:51:05;;;;;;;1.87;1.77;;;14.90;99.90;;;;;;4902347;29;20462;-65
2023/01/01 06:53:32;;;;;;;1.73;1.63;;;15.00;99.90;;;;;;4894906;29;20494;-65
2023/01/01 06:55:59;;;;;;;1.23;1.20;;;14.90;99.90;;;;;;4887930;29;20503;-65
2023/01/01 06:58:27;;;;;;;0.83;0.83;;;14.90;99.90;;;;;;4905807;29;20494;-65
2023/01/01 07:00:54;;;;;;;4.47;1.77;;;14.90;99.90;;;;;;4893493;29;20478;-65
2023/01/01 07:03:20;;;;;;;3.83;2.43;;;14.90;99.90;;;;;;4894867;29;20604;-65
2023/01/01 07:05:47;;;;;;;1.70;1.27;;;14.90;99.90;;;;;;4902386;29;20487;-65
2023/01/01 07:08:14;;;;;;;1.93;1.83;;;14.90;99.90;;;;;;4899517;29;20488;-65
2023/01/01 07:10:40;;;;;;;4.87;1.53;;;14.90;99.90;;;;;;4897006;29;20587;-65
2023/01/01 07:13:07;;;;;;;1.83;1.70;;;14.80;99.90;;;;;;4903034;29;20491;-65
2023/01/01 07:15:35;;;;;;;1.00;1.00;;;14.80;99.90;;;;;;4890624;29;20501;-65
2023/01/01 07:18:01;;;;;;;5.20;1.33;;;14.80;99.90;;;;;;4897389;29;20502;-65
2023/01/01 07:20:28;;;;;;;1.20;1.20;;;14.80;99.90;;;;;;4894080;29;20476;-65
2023/01/01 07:22:55;;;;;;;2.60;0.90;;;14.80;99.90;;;;;;4903226;29;20463;-65
2023/01/01 07:25:22;;;;;;;1.10;1.00;;;14.80;99.90;;;;;;4894309;29;20544;-65
2023/01/01 07:27:48;;;;;;;1.77;1.10;;;14.80;99.90;;;;;;4900526;29;20489;-65
2023/01/01 07:30:15;;;;;;;6.70;0.97;;;14.80;99.90;;;;;;4895871;29;20474;-65
2023/01/01 07:32:43;;;;;;;1.10;1.10;;;14.80;99.90;;;;;;4902721;29;20493;-65
2023/01/01 07:35:10;;;;;;;0.93;0.93;;;14.80;99.90;;;;;;4894135;29;20475;-66
2023/01/01 07:37:37;;;;;;;0.50;0.50;;;14.80;99.90;;;;;;4900258;29;20481;-66
2023/01/01 07:40:04;;;;;;;4.53;0.97;;;14.70;99.90;;;;;;4907726;29;20782;-67
2023/01/01 07:42:31;;;;;;;4.17;1.20;;;14.70;99.90;;;;;;4898147;29;20486;-65
2023/01/01 07:44:58;;;;;;;0.60;0.60;;;14.70;99.90;;;;;;4892752;29;20475;-65
2023/01/01 07:47:26;;;;;;;0.60;0.60;;;14.70;99.90;;;;;;4905551;29;20494;-66
2023/01/01 07:49:54;;;;;;;0.57;0.40;;;14.80;99.90;;;;;;4901419;29;20474;-65
2023/01/01 07:52:20;;;;;;;1.30;0.30;;;14.80;99.90;;;;;;4903965;29;20477;-65
2023/01/01 07:54:47;;;;;;;0.50;0.47;;;14.80;99.90;;;;;;4897705;29;20501;-66
2023/01/01 07:57:14;;;;;;;1.47;1.37;;;14.80;99.90;;;;;;4902088;29;20864;-65
2023/01/01 07:59:41;;;;;;;0.57;0.57;;;14.80;99.90;;;;;;4884254;29;20475;-66
2023/01/01 08:02:07;;;;;;;0.80;0.80;;;14.80;99.90;;;;;;4894630;29;20478;-65
2023/01/01 08:04:34;;;;;;;0.83;0.83;;;14.80;99.90;;;;;;4898622;29;20484;-65
2023/01/01 08:07:02;;;;;;;1.13;0.53;;;14.80;99.90;;;;;;4882671;29;20463;-65
2023/01/01 08:09:28;;;;;;;3.30;0.53;;;14.80;99.90;;;;;;4893191;29;20964;-65
2023/01/01 08:11:57;;;;;;;2.50;0.90;;;14.80;99.90;;;;;;4904530;29;20484;-66
2023/01/01 08:14:24;;;;;;;1.23;0.80;;;14.80;99.90;;;;;;4901365;29;20511;-65
2023/01/01 08:16:51;;;;;;;1.70;0.93;;;14.80;99.90;;;;;;4897983;29;20912;-65
2023/01/01 08:19:17;;;;;;;0.90;0.90;;;14.80;99.90;;;;;;4893163;29;20521;-64
2023/01/01 08:21:44;;;;;;;0.50;0.50;;;14.80;99.90;;;;;;4900428;29;20837;-65
2023/01/01 08:24:12;;;;;;;2.73;0.67;;;14.80;99.90;;;;;;4895792;29;20881;-66
2023/01/01 08:26:39;;;;;;;0.87;0.87;;;14.80;99.90;;;;;;4900430;29;20468;-65
2023/01/01 08:29:06;;;;;;;1.17;0.43;;;14.90;99.90;;;;;;4902335;29;20906;-65
2023/01/01 08:31:33;;;;;;;0.67;0.60;;;14.90;99.90;;;;;;4904835;29;21007;-66
2023/01/01 08:34:00;;;;;;;0.43;0.43;;;14.80;99.90;;;;;;4897418;29;20498;-65
2023/01/01 08:36:27;;;;;;;1.23;0.87;;;14.90;99.90;;;;;;4899790;29;20488;-65
2023/01/01 08:38:53;;;;;;;0.40;0.40;;;14.90;99.90;;;;;;4894911;29;20495;-65
2023/01/01 08:41:21;;;;;;;1.40;1.40;;;15.00;99.90;;;;;;4897866;29;20845;-65
2023/01/01 08:43:48;;;;;;;1.73;0.70;;;14.90;99.90;;;;;;4896656;29;20481;-65
2023/01/01 08:46:15;;;;;;;7.70;0.97;;;14.90;99.90;;;;;;4907272;29;20484;-65
2023/01/01 08:48:42;;;;;;;0.80;0.80;;;14.90;99.90;;;;;;4902683;29;20521;-65
2023/01/01 08:51:10;;;;;;;1.90;0.57;;;14.90;99.90;;;;;;4905793;29;20839;-65
2023/01/01 08:53:37;;;;;;;1.70;1.00;;;14.80;99.90;;;;;;4902281;29;20494;-65
2023/01/01 08:56:05;;;;;;;3.33;0.40;;;14.80;99.90;;;;;;4899925;29;20478;-65
2023/01/01 08:58:35;;;;;;;1.27;0.80;;;14.80;99.90;;;;;;4899190;29;20505;-65
2023/01/01 09:01:02;;;;;;;0.50;0.50;;;14.80;99.90;;;;;;4897034;29;20479;-65
2023/01/01 09:03:29;;;;;;;0.73;0.73;;;14.80;99.90;;;;;;4904700;29;20475;-66
2023/01/01 09:05:56;;;;;;;0.40;0.40;;;14.80;99.90;;;;;;4894384;29;20535;-66
2023/01/01 09:08:23;;;;;;;0.70;0.70;;;14.80;99.90;;;;;;4895360;29;20907;-66
2023/01/01 09:10:50;;;;;;;1.40;1.30;;;14.80;99.90;;;;;;4896512;29;20482;-66
2023/01/01 09:13:19;;;;;;;1.80;0.83;;;14.80;99.90;;;;;;4907876;29;20517;-66
2023/01/01 09:15:47;;;;;;;0.77;0.77;;;14.80;99.90;;;;;;4909750;29;20479;-66
2023/01/01 09:18:14;;;;;;;0.60;0.60;;;14.80;99.90;;;;;;4901953;29;20509;-66
2023/01/01 09:20:41;;;;;;;0.60;0.60;;;14.80;99.90;;;;;;4905834;29;20475;-65
2023/01/01 09:23:08;;;;;;;0.80;0.30;;;14.80;99.90;;;;;;4894442;29;20900;-65
2023/01/01 09:25:35;;;;;;;0.93;0.93;;;14.80;99.90;;;;;;4887657;29;20479;-66
2023/01/01 09:28:05;;;;;;;0.30;0.30;;;14.80;99.90;;;;;;4892129;29;21042;-66
2023/01/01 09:30:32;;;;;;;1.90;1.03;;;14.80;99.90;;;;;;4897952;29;20473;-65
2023/01/01 09:33:00;;;;;;;2.40;0.80;;;14.80;99.90;;;;;;4893968;29;20475;-65
2023/01/01 09:35:27;;;;;;;0.40;0.40;;;14.80;99.90;;;;;;4894448;29;20485;-66
2023/01/01 09:37:54;;;;;;;2.00;0.57;;;14.80;99.90;;;;;;4897366;29;20840;-67
2023/01/01 09:40:30;;;;;;;0.30;0.30;;;14.90;99.90;;;;;;4892331;29;20475;-66
2023/01/01 09:43:06;;;;;;;0.50;0.47;;;14.90;99.90;;;;;;4891263;29;20497;-66
2023/01/01 09:45:37;;;;;;;1.10;1.10;;;14.90;99.90;;;;;;4888946;29;20602;-66
2023/01/01 09:48:07;;;;;;;1.90;0.80;;;14.90;99.90;;;;;;4894410;29;20492;-66
2023/01/01 09:50:37;;;;;;;0.80;0.60;;;15.00;99.90;;;;;;4896931;29;20490;-66
2023/01/01 09:53:07;;;;;;;2.47;0.33;;;15.00;99.90;;;;;;4895722;29;20997;-66
2023/01/01 09:55:42;;;;;;;0.60;0.60;;;15.00;99.90;;;;;;4895348;29;20536;-66
2023/01/01 09:58:10;;;;;;;0.70;0.57;;;14.90;99.90;;;;;;4895979;29;20992;-66
2023/01/01 10:00:39;;;;;;;1.43;0.97;;;15.00;99.90;;;;;;4883512;29;20476;-66
2023/01/01 10:03:21;;;;;;;0.37;0.37;;;15.00;99.90;;;;;;4889288;29;20478;-67
2023/01/01 10:05:56;;;;;;;0.50;0.50;;;15.00;99.90;;;;;;4891908;29;20475;-66
2023/01/01 10:08:39;;;;;;;0.50;0.50;;;15.00;99.90;;;;;;4896750;29;20500;-66
2023/01/01 10:11:15;;;;;;;0.70;0.70;;;15.00;99.90;;;;;;4893572;29;20468;-66
2023/01/01 10:13:44;;;;;;;1.57;0.70;;;15.00;99.90;;;;;;4890164;29;20498;-66
2023/01/01 10:16:17;;;;;;;0.60;0.60;;;15.00;99.90;;;;;;4888276;29;20487;-66
2023/01/01 10:18:48;;;;;;;0.67;0.60;;;14.90;99.90;;;;;;4890172;29;20507;-66
2023/01/01 10:21:18;;;;;;;0.23;0.23;;;14.90;99.90;;;;;;4889516;29;20477;-66
2023/01/01 10:23:49;;;;;;;0.30;0.30;;;14.90;99.90;;;;;;4893314;29;20464;-66
2023/01/01 10:26:18;;;;;;;0.40;0.40;;;14.90;99.90;;;;;;4892979;29;20972;-66
2023/01/01 10:28:53;;;;;;;0.90;0.90;;;14.90;99.90;;;;;;4892688;29;20909;-66
2023/01/01 10:31:28;;;;;;;0.30;0.30;;;15.00;99.90;;;;;;4893512;29;20485;-67
2023/01/01 10:33:57;;;;;;;0.60;0.50;;;15.00;99.90;;;;;;4887703;29;20523;-66
2023/01/01 10:36:25;;;;;;;0.73;0.30;;;14.90;99.90;;;;;;4893966;29;20487;-66
2023/01/01 10:38:52;;;;;;;0.60;0.40;;;14.90;99.90;;;;;;4895733;29;20499;-66
2023/01/01 10:41:19;;;;;;;0.27;0.27;;;14.90;99.90;;;;;;4894780;29;20485;-66
2023/01/01 10:43:46;;;;;;;0.30;0.30;;;14.90;99.90;;;;;;4892806;29;20781;-66
2023/01/01 10:46:18;;;;;;;0.60;0.60;;;14.80;99.90;;;;;;4894833;29;20480;-67
2023/01/01 10:49:06;;;;;;;3.20;0.77;;;14.80;99.90;;;;;;4892007;29;20578;-66
2023/01/01 10:51:35;;;;;;;0.60;0.60;;;14.80;99.90;;;;;;4890360;29;20847;-66
2023/01/01 10:54:02;;;;;;;2.67;0.50;;;14.80;99.90;;;;;;4894559;29;20495;-66
2023/01/01 10:56:40;;;;;;;0.20;0.20;;;14.80;99.90;;;;;;4901839;29;20561;-66
2023/01/01 10:59:37;;;;;;;0.60;0.60;;;14.80;99.90;;;;;;4893337;29;20498;-66
2023/01/01 11:02:19;;;;;;;0.20;0.20;;;14.80;99.90;;;;;;4897641;29;20489;-66
2023/01/01 11:04:46;;;;;;;1.50;0.47;;;14.80;99.90;;;;;;4894205;29;20467;-66
2023/01/01 11:07:21;;;;;;;2.83;0.70;;;14.70;99.90;;;;;;4892525;29;20888;-66
2023/01/01 11:09:49;;;;;;;0.50;0.50;;;14.70;99.90;;;;;;4892850;29;20485;-66
2023/01/01 11:12:20;;;;;;;1.00;0.27;;;14.70;99.90;;;;;;4892308;29;20480;-66
2023/01/01 11:14:52;;;;;;;0.23;0.23;;;14.70;99.90;;;;;;4895128;29;20598;-66
2023/01/01 11:17:21;;;;;;;0.43;0.30;;;14.70;99.90;;;;;;4895609;29;20546;-66
2023/01/01 11:19:50;;;;;;;1.47;0.27;;;14.60;99.90;;;;;;4889281;29;20836;-66
2023/01/01 11:22:37;;;;;;;0.57;0.47;;;14.60;99.90;;;;;;4892211;29;20486;-67
2023/01/01 11:25:16;;;;;;;0.20;0.20;;;14.50;99.90;;;;;;4906371;23;20875;-65
2023/01/01 11:27:42;;;;;;;0.67;0.67;;;14.50;99.90;;;;;;4894759;29;20490;-66
2023/01/01 11:30:21;;;;;;;0.30;0.30;;;14.40;99.90;;;;;;4894068;29;20474;-66
2023/01/01 11:32:49;;;;;;;0.20;0.20;;;14.40;99.90;;;;;;4894193;29;20552;-66
2023/01/01 11:35:20;;;;;;;1.40;0.60;;;14.30;99.90;;;;;;4881362;29;20956;-66
2023/01/01 11:37:48;;;;;;;0.40;0.40;;;14.20;99.90;;;;;;4883741;29;20581;-67
2023/01/01 11:40:20;;;;;;;0.70;0.30;;;14.20;99.90;;;;;;4881139;29;20871;-67
2023/01/01 11:42:50;;;;;;;0.30;0.30;;;14.20;99.90;;;;;;4880028;29;20534;-67
2023/01/01 11:45:21;;;;;;;0.37;0.30;;;14.10;99.90;;;;;;4884428;29;21000;-67
2023/01/01 11:47:53;;;;;;;1.70;0.43;;;14.10;99.90;;;;;;4879904;29;20475;-66
2023/01/01 11:50:28;;;;;;;0.53;0.53;;;14.00;99.90;;;;;;4883659;29;20475;-67
2023/01/01 11:52:58;;;;;;;0.40;0.40;;;14.00;99.90;;;;;;4883326;29;20847;-66
2023/01/01 11:55:36;;;;;;;1.80;0.80;;;14.00;99.90;;;;;;4880285;29;20496;-66
2023/01/01 11:58:18;;;;;;;6.37;0.57;;;14.00;99.90;;;;;;4876704;29;20482;-65
2023/01/01 12:00:47;;;;;;;0.47;0.47;;;13.90;99.90;;;;;;4880629;29;20478;-66
2023/01/01 12:03:23;;;;;;;0.50;0.40;;;13.90;99.90;;;;;;4883801;29;20469;-66
2023/01/01 12:05:54;;;;;;;0.70;0.40;;;13.90;99.90;;;;;;4881673;29;20800;-66
2023/01/01 12:08:33;;;;;;;1.80;0.30;;;13.90;99.90;;;;;;4882057;29;20482;-66
2023/01/01 12:11:08;;;;;;;2.43;0.27;;;13.90;99.90;;;;;;4879220;29;20476;-66
2023/01/01 12:13:44;;;;;;;0.60;0.60;;;13.90;99.90;;;;;;4882487;29;20491;-66
2023/01/01 12:16:16;;;;;;;1.70;0.30;;;13.80;99.90;;;;;;4881136;29;20531;-66
2023/01/01 12:18:47;;;;;;;0.20;0.20;;;13.80;99.90;;;;;;4887221;29;20466;-66
2023/01/01 12:21:19;;;;;;;0.93;0.70;;;13.80;99.90;;;;;;4883803;29;20832;-66
2023/01/01 12:23:46;;;;;;;1.43;1.03;;;13.80;99.90;;;;;;4886074;29;20505;-66
2023/01/01 12:26:21;;;;;;;0.60;0.60;;;13.80;99.90;;;;;;4881381;29;20472;-66
2023/01/01 12:29:19;;;;;;;0.30;0.30;;;13.80;99.90;;;;;;4884074;29;20979;-66
2023/01/01 12:31:54;;;;;;;0.40;0.40;;;13.70;99.90;;;;;;4868534;29;20839;-66
2023/01/01 12:34:27;;;;;;;0.60;0.60;;;13.60;99.90;;;;;;4878887;29;20504;-66
2023/01/01 12:37:00;;;;;;;0.20;0.20;;;13.60;99.90;;;;;;4888866;29;20477;-66
2023/01/01 12:39:53;;;;;;;0.70;0.70;;;13.50;99.90;;;;;;4885112;29;20948;-66
2023/01/01 12:42:31;;;;;;;0.87;0.87;;;13.50;99.90;;;;;;4885060;29;20478;-66
2023/01/01 12:45:17;;;;;;;0.30;0.30;;;13.40;99.90;;;;;;4889046;29;20497;-66
2023/01/01 12:47:56;;;;;;;0.60;0.27;;;13.40;99.90;;;;;;4881598;29;20475;-66
2023/01/01 12:50:32;;;;;;;0.30;0.30;;;13.40;99.90;;;;;;4881453;29;20475;-67
2023/01/01 12:53:09;;;;;;;2.27;0.50;;;13.40;99.90;;;;;;4880204;29;20478;-67
2023/01/01 12:56:00;;;;;;;0.20;0.20;;;13.30;99.90;;;;;;4886628;29;20491;-67
2023/01/01 12:58:32;;;;;;;0.30;0.30;;;13.40;99.90;;;;;;4872090;29;20468;-66
2023/01/01 13:01:05;;;;;;;0.50;0.50;;;13.30;99.90;;;;;;4878304;29;20826;-67
2023/01/01 13:03:37;;;;;;;0.40;0.30;;;13.30;99.90;;;;;;4879173;29;20502;-67
2023/01/01 13:06:05;;;;;;;0.37;0.37;;;13.30;99.90;;;;;;4882635;29;20815;-66
2023/01/01 13:08:33;;;;;;;0.80;0.30;;;13.30;99.90;;;;;;4885975;29;20462;-67
2023/01/01 13:11:02;;;;;;;0.30;0.30;;;13.30;99.90;;;;;;4879244;29;20477;-67
2023/01/01 13:13:29;;;;;;;0.30;0.30;;;13.30;99.90;;;;;;4885277;29;20585;-66
2023/01/01 13:15:57;;;;;;;0.50;0.50;;;13.40;99.90;;;;;;4897580;29;20501;-65
2023/01/01 13:18:29;;;;;;;0.30;0.30;;;13.40;99.90;;;;;;4899781;29;20466;-65
2023/01/01 13:21:03;;;;;;;0.43;0.43;;;13.40;99.90;;;;;;4898245;29;20501;-64
2023/01/01 13:23:44;;;;;;;0.37;0.37;;;13.30;99.90;;;;;;4898191;29;20492;-65
2023/01/01 13:26:37;;;;;;;0.20;0.20;;;13.30;99.90;;;;;;4901032;29;20573;-65
2023/01/01 13:29:37;;;;;;;0.30;0.20;;;13.30;99.90;;;;;;4885818;29;20479;-66
2023/01/01 13:32:14;;;;;;;0.20;0.20;;;13.20;99.90;;;;;;4863981;29;20795;-66
2023/01/01 13:35:16;;;;;;;0.33;0.33;;;13.20;99.90;;;;;;4886428;29;20509;-67
2023/01/01 13:37:45;;;;;;;1.47;0.40;;;13.20;99.90;;;;;;4872414;29;20531;-67
2023/01/01 13:40:51;;;;;;;0.60;0.60;;;13.10;99.90;;;;;;4882520;29;20489;-65
2023/01/01 13:43:26;;;;;;;0.60;0.57;;;13.10;99.90;;;;;;4881681;29;21050;-66
2023/01/01 13:45:54;;;;;;;0.30;0.30;;;13.10;99.90;;;;;;4883527;29;20522;-65
2023/01/01 13:48:57;;;;;;;0.30;0.30;;;13.10;99.90;;;;;;4882178;29;20482;-67
2023/01/01 13:51:57;;;;;;;3.50;0.50;;;13.00;99.90;;;;;;4871864;29;20469;-65
2023/01/01 13:55:02;;;;;;;3.23;1.13;;;13.00;99.90;;;;;;4870627;29;20486;-66
2023/01/01 13:58:09;;;;;;;1.10;0.50;;;13.00;99.90;;;;;;4876550;29;20486;-67
2023/01/01 14:00:46;;;;;;;0.60;0.60;;;12.90;99.90;;;;;;4841576;29;20478;-67
2023/01/01 14:03:15;;;;;;;0.40;0.40;;;12.90;99.90;;;;;;4878683;29;20474;-65
2023/01/01 14:05:44;;;;;;;0.50;0.50;;;12.90;99.90;;;;;;4878358;29;20473;-67
2023/01/01 14:08:29;;;;;;;0.97;0.97;;;12.90;99.90;;;;;;4881673;29;20479;-67
2023/01/01 14:10:56;;;;;;;3.90;0.83;;;12.80;99.90;;;;;;4884143;29;20501;-67
2023/01/01 14:13:28;;;;;;;1.03;0.80;;;12.80;99.90;;;;;;4874519;29;20468;-67
2023/01/01 14:15:58;;;;;;;2.30;0.83;;;12.80;99.90;;;;;;4876528;29;20749;-66
2023/01/01 14:18:33;;;;;;;1.37;1.37;;;12.70;99.90;;;;;;4874108;29;20474;-66
2023/01/01 14:21:01;;;;;;;1.03;0.90;;;12.70;99.90;;;;;;4881049;29;20480;-67
2023/01/01 14:23:32;;;;;;;5.30;0.90;;;12.60;99.90;;;;;;4880298;29;21922;-67
2023/01/01 14:26:02;;;;;;;5.00;0.50;;;12.60;99.90;;;;;;4879810;29;20796;-67
2023/01/01 14:28:32;;;;;;;0.47;0.47;;;12.60;99.90;;;;;;4878610;29;20581;-66
2023/01/01 14:31:01;;;;;;;0.60;0.60;;;12.60;99.90;;;;;;4879151;29;20489;-67
2023/01/01 14:33:30;;;;;;;0.93;0.30;;;12.60;99.90;;;;;;4878769;29;20493;-66
2023/01/01 14:35:59;;;;;;;0.60;0.40;;;12.50;99.90;;;;;;4880382;29;20833;-67
2023/01/01 14:38:28;;;;;;;0.50;0.50;;;12.50;99.90;;;;;;4870415;29;20548;-67
2023/01/01 14:41:09;;;;;;;0.73;0.50;;;12.50;99.90;;;;;;4878255;29;20971;-67
2023/01/01 14:43:38;;;;;;;2.23;0.50;;;12.50;99.90;;;;;;4870539;29;20486;-67
2023/01/01 14:46:06;;;;;;;0.47;0.40;;;12.40;99.90;;;;;;4876037;29;20483;-66
2023/01/01 14:48:34;;;;;;;1.50;0.40;;;12.40;99.90;;;;;;4880482;29;20479;-67
2023/01/01 14:51:01;;;;;;;0.40;0.40;;;12.50;99.90;;;;;;4884639;29;20488;-65
2023/01/01 14:53:32;;;;;;;0.40;0.40;;;12.50;99.90;;;;;;4877420;29;20501;-65
2023/01/01 14:56:01;;;;;;;0.50;0.40;;;12.50;99.90;;;;;;4882115;29;21058;-65
2023/01/01 14:58:29;;;;;;;0.20;0.20;;;12.50;99.90;;;;;;4877617;29;20476;-65
2023/01/01 15:01:16;;;;;;;0.93;0.93;;;12.40;99.90;;;;;;4882511;29;20478;-66
2023/01/01 15:03:55;;;;;;;0.60;0.60;;;12.40;99.90;;;;;;4870747;29;20491;-66
2023/01/01 15:06:23;;;;;;;0.80;0.53;;;12.40;99.90;;;;;;4883934;29;20486;-66
2023/01/01 15:08:50;;;;;;;0.57;0.57;;;12.30;99.90;;;;;;4877090;29;20467;-66
2023/01/01 15:11:17;;;;;;;10.90;1.77;;;12.20;99.90;;;;;;4875588;29;20476;-66
2023/01/01 15:13:54;;;;;;;4.90;0.80;;;12.20;99.90;;;;;;4879259;29;20499;-65
2023/01/01 15:16:22;;;;;;;6.07;1.60;;;12.20;99.90;;;;;;4882398;29;20495;-66
2023/01/01 15:18:51;;;;;;;2.60;0.60;;;12.20;99.90;;;;;;4877135;29;20469;-66
2023/01/01 15:21:32;;;;;;;4.53;0.80;;;12.20;99.90;;;;;;4880310;29;20555;-66
2023/01/01 15:24:02;;;;;;;5.60;1.10;;;12.20;99.90;;;;;;4878463;29;20502;-66
2023/01/01 15:26:31;;;;;;;0.63;0.57;;;12.30;99.90;;;;;;4880439;29;20469;-66
2023/01/01 15:28:59;;;;;;;0.87;0.83;;;12.20;99.90;;;;;;4880578;29;20995;-66
2023/01/01 15:31:36;;;;;;;0.90;0.90;;;12.20;99.90;;;;;;4874445;29;20489;-66
2023/01/01 15:34:04;;;;;;;0.93;0.73;;;12.20;99.90;;;;;;4881640;29;20498;-67
2023/01/01 15:36:31;;;;;;;1.33;0.80;;;12.20;99.90;;;;;;4880826;29;20493;-67
2023/01/01 15:38:58;;;;;;;2.73;0.90;;;12.20;99.90;;;;;;4882636;29;20846;-66
2023/01/01 15:41:37;;;;;;;1.13;0.80;;;12.20;99.90;;;;;;4878447;29;20599;-66
2023/01/01 15:44:09;;;;;;;0.77;0.77;;;12.20;99.90;;;;;;4884810;29;20569;-66
2023/01/01 15:46:37;;;;;;;0.70;0.70;;;12.10;99.90;;;;;;4887878;29;20223;-66
2023/01/01 15:49:21;;;;;;;0.53;0.53;;;12.10;99.90;;;;;;4890412;29;20470;-66
2023/01/01 15:51:48;;;;;;;1.95;1.80;;;12.00;99.90;;;;;;4881261;29;20481;-66
2023/01/01 15:54:18;;;;;;;1.23;1.23;;;12.00;99.90;;;;;;4879631;29;20244;-66
2023/01/01 15:56:45;;;;;;;0.90;0.90;;;12.00;99.90;;;;;;4876527;29;20505;-66
2023/01/01 15:59:23;;;;;;;13.70;1.02;;;12.00;99.90;;;;;;4876605;29;20469;-66
2023/01/01 16:01:51;;;;;;;0.60;0.60;;;11.90;99.90;;;;;;4882051;29;20213;-66
2023/01/01 16:04:21;;;;;;;5.97;1.35;;;11.90;99.90;;;;;;4879437;29;20501;-66
2023/01/01 16:06:50;;;;;;;3.08;1.80;;;11.90;99.90;;;;;;4881020;29;20214;-66
2023/01/01 16:09:18;;;;;;;1.00;1.00;;;11.90;99.90;;;;;;4876968;29;20213;-66
2023/01/01 16:11:45;;;;;;;4.53;1.60;;;11.80;99.90;;;;;;4881987;29;20218;-66
2023/01/01 16:14:12;;;;;;;1.30;1.13;;;11.80;99.90;;;;;;4879617;29;20265;-66
2023/01/01 16:16:42;;;;;;;4.68;0.98;;;11.80;99.90;;;;;;4887850;29;20224;-65
2023/01/01 16:19:15;;;;;;;1.40;1.40;;;11.80;99.90;;;;;;4882412;29;20638;-66
2023/01/01 16:21:42;;;;;;;1.10;0.55;;;11.80;99.90;;;;;;4882637;29;20213;-66
2023/01/01 16:24:12;;;;;;;0.60;0.60;;;11.80;99.90;;;;;;4886773;29;20268;-66
2023/01/01 16:26:39;;;;;;;0.75;0.75;;;11.80;99.90;;;;;;4878796;29;20221;-66
2023/01/01 16:29:05;;;;;;;1.38;0.80;;;11.80;99.90;;;;;;4878103;29;20307;-67
2023/01/01 16:31:32;;;;;;;3.90;1.53;;;11.80;99.90;;;;;;4880112;29;20559;-66
2023/01/01 16:34:00;;;;;;;0.73;0.73;;;11.80;99.90;;;;;;4886421;29;20832;-65
2023/01/01 16:36:28;;;;;;;0.85;0.82;;;11.70;99.90;;;;;;4880487;29;20237;-66
2023/01/01 16:38:55;;;;;;;4.33;0.67;;;11.70;99.90;;;;;;4892770;29;20227;-67
2023/01/01 16:41:21;;;;;;;1.05;1.02;;;11.70;99.90;;;;;;4884945;29;20478;-67
2023/01/01 16:43:49;;;;;;;0.73;0.73;;;11.60;99.90;;;;;;4882861;29;20249;-66
2023/01/01 16:46:15;;;;;;;2.03;1.92;;;11.60;99.90;;;;;;4876976;29;20215;-67
2023/01/01 16:48:42;;;;;;;0.93;0.88;;;11.60;99.90;;;;;;4884816;29;20217;-68
2023/01/01 16:51:17;;;;;;;1.58;1.27;;;11.60;99.90;;;;;;4880127;29;20217;-67
2023/01/01 16:53:46;;;;;;;1.77;1.67;;;11.50;99.90;;;;;;4879457;29;20232;-67
2023/01/01 16:56:13;;;;;;;1.42;1.42;;;11.50;99.90;;;;;;4888327;29;20238;-67
2023/01/01 16:58:40;;;;;;;7.53;1.63;;;11.50;99.90;;;;;;4881049;29;20295;-67
2023/01/01 17:01:07;;;;;;;1.10;1.10;;;11.50;99.90;;;;;;4885579;29;20212;-67
2023/01/01 17:03:34;;;;;;;1.50;1.45;;;11.50;99.90;;;;;;4879169;29;20573;-67
2023/01/01 17:06:04;;;;;;;1.50;1.50;;;11.50;99.90;;;;;;4883695;29;20214;-67
2023/01/01 17:08:31;;;;;;;1.00;1.00;;;11.50;99.90;;;;;;4879501;29;20235;-66
2023/01/01 17:11:04;;;;;;;3.83;1.90;;;11.50;99.90;;;;;;4884678;29;20240;-67
2023/01/01 17:13:32;;;;;;;1.90;1.27;;;11.50;99.90;;;;;;4879338;29;20233;-67
2023/01/01 17:15:59;;;;;;;2.90;1.95;;;11.40;99.90;;;;;;4880672;29;20607;-67
2023/01/01 17:18:26;;;;;;;1.75;1.67;;;11.40;99.90;;;;;;4879452;29;20212;-67
2023/01/01 17:20:53;;;;;;;6.47;1.20;;;11.40;99.90;;;;;;4885462;29;20234;-67
2023/01/01 17:23:19;;;;;;;1.27;1.27;;;11.30;99.90;;;;;;4879580;29;20577;-67
2023/01/01 17:25:46;;;;;;;2.63;2.53;;;11.40;99.90;;;;;;4903504;23;20233;-66
2023/01/01 17:28:14;;;;;;;2.38;2.38;;;11.30;99.90;;;;;;4911900;29;20216;-66
2023/01/01 17:30:41;;;;;;;6.03;2.05;;;11.30;99.90;;;;;;4910279;29;20216;-68
2023/01/01 17:33:07;;;;;;;1.38;1.25;;;11.20;99.90;;;;;;4911247;29;20816;-69
2023/01/01 17:35:34;;;;;;;2.20;2.10;;;11.20;99.90;;;;;;4907990;29;20232;-66
2023/01/01 17:38:01;;;;;;;2.20;2.20;;;11.20;99.90;;;;;;4915054;29;20209;-67
2023/01/01 17:40:27;;;;;;;1.38;1.27;;;11.10;99.90;;;;;;4907785;29;20222;-70
2023/01/01 17:42:54;;;;;;;2.47;1.95;;;11.10;99.90;;;;;;4906445;29;20675;-69
2023/01/01 17:45:23;;;;;;;6.03;2.92;;;11.10;99.90;;;;;;4905730;29;20229;-69
2023/01/01 17:47:49;;;;;;;2.08;1.98;;;11.10;99.90;;;;;;4905082;29;20306;-70
2023/01/01 17:50:18;;;;;;;1.85;1.75;;;11.10;99.90;;;;;;4904409;29;20212;-69
2023/01/01 17:52:45;;;;;;;1.60;1.52;;;11.10;99.90;;;;;;4907900;29;20219;-68
2023/01/01 17:55:11;;;;;;;1.60;1.50;;;11.10;99.90;;;;;;4907927;29;20255;-69
2023/01/01 17:57:38;;;;;;;1.85;1.85;;;11.10;99.90;;;;;;4896524;29;20717;-68
2023/01/01 18:00:09;;;;;;;3.90;2.22;;;11.10;99.90;;;;;;4907661;29;20307;-69
2023/01/01 18:02:37;;;;;;;9.48;1.85;;;11.10;99.90;;;;;;4908292;29;20698;-71